Time;durP1;ratioP1;P1;durP2;ratioP2;P2;SDS_P1;SDS_P2;PMS_P1;PMS_P2;Temp;Humidity;BMP_temperature;BMP_pressure;BME280_temperature;BME280_humidity;BME280_pressure;Samples;Min_cycle;Max_cycle;Signal;HPM_P1;HPM_P2
2024/02/10 00:01:48;;;;;;;11.98;6.18;;;9.90;99.90;;;;;;5025329;28;20316;-70
2024/02/10 00:04:17;;;;;;;15.77;6.85;;;9.90;99.90;;;;;;5028457;28;20525;-72
2024/02/10 00:06:45;;;;;;;16.17;6.05;;;9.90;99.90;;;;;;5028375;28;20030;-69
2024/02/10 00:09:14;;;;;;;15.10;6.57;;;9.90;99.90;;;;;;5026050;28;20041;-71
2024/02/10 00:11:41;;;;;;;19.52;6.60;;;9.90;99.90;;;;;;5029403;28;20128;-70
2024/02/10 00:14:08;;;;;;;15.18;6.75;;;9.90;99.90;;;;;;5026782;28;20483;-71
2024/02/10 00:16:33;;;;;;;14.95;5.88;;;9.90;99.90;;;;;;5009711;28;20037;-71
2024/02/10 00:19:06;;;;;;;13.10;5.93;;;9.90;99.90;;;;;;5032899;28;20561;-70
2024/02/10 00:21:32;;;;;;;11.38;5.38;;;9.90;99.90;;;;;;5026048;28;20025;-72
2024/02/10 00:23:58;;;;;;;16.67;5.70;;;10.00;99.90;;;;;;5013672;28;20029;-71
2024/02/10 00:26:25;;;;;;;16.17;6.40;;;10.00;99.90;;;;;;5042879;28;20402;-70
2024/02/10 00:28:53;;;;;;;14.27;6.23;;;10.00;99.90;;;;;;5025071;28;20055;-75
2024/02/10 00:31:23;;;;;;;13.07;6.25;;;10.00;99.90;;;;;;5025034;28;20017;-70
2024/02/10 00:33:53;;;;;;;10.95;5.97;;;10.00;99.90;;;;;;5029834;28;20033;-70
2024/02/10 00:36:19;;;;;;;15.60;5.40;;;10.00;99.90;;;;;;5027957;28;20102;-73
2024/02/10 00:38:44;;;;;;;17.30;6.25;;;10.00;99.90;;;;;;5026832;28;20039;-74
2024/02/10 00:41:11;;;;;;;16.25;5.55;;;10.00;99.90;;;;;;5022521;28;20536;-70
2024/02/10 00:43:42;;;;;;;12.23;6.15;;;10.00;99.90;;;;;;5025145;28;20030;-74
2024/02/10 00:46:15;;;;;;;14.93;5.50;;;10.10;99.90;;;;;;5026036;28;20021;-73
2024/02/10 00:48:41;;;;;;;13.88;6.05;;;10.00;99.90;;;;;;5030102;28;20036;-72
2024/02/10 00:51:07;;;;;;;15.15;6.15;;;10.00;99.90;;;;;;5027508;28;20030;-71
2024/02/10 00:53:39;;;;;;;13.73;6.50;;;10.00;99.90;;;;;;5031080;28;20026;-70
2024/02/10 00:56:12;;;;;;;11.95;5.65;;;10.00;99.90;;;;;;5009971;28;20022;-69
2024/02/10 00:58:44;;;;;;;17.60;5.85;;;10.00;99.90;;;;;;5027314;28;20424;-71
2024/02/10 01:01:20;;;;;;;18.65;6.63;;;10.00;99.90;;;;;;5011787;28;20029;-69
2024/02/10 01:03:46;;;;;;;14.85;5.88;;;10.00;99.90;;;;;;5029010;28;20060;-69
2024/02/10 01:06:16;;;;;;;15.88;5.95;;;10.00;99.90;;;;;;5029890;28;20032;-69
2024/02/10 01:08:46;;;;;;;13.77;6.50;;;9.90;99.90;;;;;;5031502;28;20045;-72
2024/02/10 01:11:23;;;;;;;15.45;6.97;;;9.90;99.90;;;;;;5032207;28;20025;-73
2024/02/10 01:13:50;;;;;;;13.00;6.23;;;9.90;99.90;;;;;;5028368;28;20041;-70
2024/02/10 01:16:17;;;;;;;21.30;6.93;;;9.90;99.90;;;;;;5026845;28;20025;-69
2024/02/10 01:18:43;;;;;;;15.10;6.70;;;9.90;99.90;;;;;;5028407;28;20051;-70
2024/02/10 01:21:10;;;;;;;12.63;6.03;;;9.90;99.90;;;;;;5007728;28;20033;-70
2024/02/10 01:23:41;;;;;;;16.15;6.38;;;9.90;99.90;;;;;;5023694;28;20116;-69
2024/02/10 01:26:12;;;;;;;14.93;5.82;;;9.90;99.90;;;;;;5010362;28;20020;-70
2024/02/10 01:28:38;;;;;;;13.50;6.28;;;9.80;99.90;;;;;;5025409;28;20033;-69
2024/02/10 01:31:07;;;;;;;12.32;6.20;;;9.80;99.90;;;;;;5012603;28;20041;-71
2024/02/10 01:33:34;;;;;;;14.70;6.18;;;9.80;99.90;;;;;;5027202;28;20037;-74
2024/02/10 01:35:59;;;;;;;11.07;5.80;;;9.80;99.90;;;;;;5018952;28;20037;-72
2024/02/10 01:38:25;;;;;;;17.33;6.30;;;9.80;99.90;;;;;;5024757;28;20048;-69
2024/02/10 01:40:51;;;;;;;16.75;6.20;;;9.80;99.90;;;;;;5026710;28;20100;-71
2024/02/10 01:43:18;;;;;;;13.98;6.57;;;9.70;99.90;;;;;;5027073;28;20653;-72
2024/02/10 01:45:43;;;;;;;12.13;6.72;;;9.70;99.90;;;;;;5025449;28;20030;-70
2024/02/10 01:48:09;;;;;;;13.45;6.50;;;9.70;99.90;;;;;;5018039;28;20030;-70
2024/02/10 01:50:36;;;;;;;12.20;5.78;;;9.70;99.90;;;;;;5018439;28;20162;-71
2024/02/10 01:53:03;;;;;;;13.20;6.65;;;9.70;99.90;;;;;;5031530;28;20065;-69
2024/02/10 01:55:30;;;;;;;16.02;6.65;;;9.70;99.90;;;;;;5018853;28;20064;-70
2024/02/10 01:58:00;;;;;;;16.15;5.82;;;9.70;99.90;;;;;;5028978;28;20139;-70
2024/02/10 02:00:26;;;;;;;18.05;6.03;;;9.70;99.90;;;;;;5013186;28;20025;-70
2024/02/10 02:02:59;;;;;;;10.98;5.82;;;9.70;99.90;;;;;;5034768;28;20021;-71
2024/02/10 02:05:26;;;;;;;14.23;5.78;;;9.70;99.90;;;;;;5008684;28;20030;-71
2024/02/10 02:07:52;;;;;;;17.20;6.23;;;9.70;99.90;;;;;;5014446;28;20029;-69
2024/02/10 02:10:21;;;;;;;17.23;5.95;;;9.70;99.90;;;;;;5022542;28;20275;-70
2024/02/10 02:12:48;;;;;;;;;;;9.70;99.90;;;;;;5028786;28;20385;-69
2024/02/10 02:15:15;;;;;;;16.65;6.78;;;9.70;99.90;;;;;;5024324;28;19960;-71
2024/02/10 02:17:40;;;;;;;11.52;5.85;;;9.70;99.90;;;;;;5028109;28;20037;-71
2024/02/10 02:20:07;;;;;;;12.18;6.63;;;9.70;99.90;;;;;;5029015;28;20444;-70
2024/02/10 02:22:33;;;;;;;12.18;6.13;;;9.70;99.90;;;;;;5023837;28;20219;-69
2024/02/10 02:24:58;;;;;;;14.90;6.00;;;9.70;99.90;;;;;;5024146;28;20040;-69
2024/02/10 02:27:24;;;;;;;17.05;6.90;;;9.70;99.90;;;;;;5010474;28;20397;-70
2024/02/10 02:29:50;;;;;;;13.75;6.50;;;9.70;99.90;;;;;;5026838;28;20033;-72
2024/02/10 02:32:16;;;;;;;14.10;6.82;;;9.70;99.90;;;;;;5027893;28;20029;-69
2024/02/10 02:34:42;;;;;;;16.73;7.40;;;9.70;99.90;;;;;;5028647;28;20036;-70
2024/02/10 02:37:08;;;;;;;19.85;6.80;;;9.70;99.90;;;;;;5013950;28;20030;-70
2024/02/10 02:39:35;;;;;;;11.90;6.43;;;9.70;99.90;;;;;;5026929;28;20041;-71
2024/02/10 02:42:07;;;;;;;20.40;7.20;;;9.70;99.90;;;;;;5013328;28;20025;-70
2024/02/10 02:44:33;;;;;;;15.88;6.63;;;9.70;99.90;;;;;;5009415;28;20029;-70
2024/02/10 02:47:04;;;;;;;19.90;7.22;;;9.80;99.90;;;;;;5025766;28;20029;-68
2024/02/10 02:49:30;;;;;;;12.65;6.82;;;9.70;99.90;;;;;;5025552;28;20037;-69
2024/02/10 02:51:56;;;;;;;18.88;7.50;;;9.80;99.90;;;;;;5023785;28;20174;-69
2024/02/10 02:54:22;;;;;;;16.70;7.45;;;9.80;99.90;;;;;;5019228;28;20025;-70
2024/02/10 02:56:52;;;;;;;21.85;7.30;;;9.80;99.90;;;;;;5027433;28;20520;-72
2024/02/10 02:59:19;;;;;;;16.52;6.78;;;9.80;99.90;;;;;;5024515;28;20513;-72
2024/02/10 03:01:50;;;;;;;24.52;7.25;;;9.80;99.90;;;;;;5024269;28;20478;-69
2024/02/10 03:04:16;;;;;;;17.83;6.97;;;9.90;99.90;;;;;;5026874;28;20726;-71
2024/02/10 03:06:43;;;;;;;21.35;6.90;;;9.90;99.90;;;;;;5024358;28;20040;-71
2024/02/10 03:09:09;;;;;;;16.20;6.68;;;9.90;99.90;;;;;;5027529;28;20784;-72
2024/02/10 03:11:36;;;;;;;26.45;8.10;;;10.00;99.90;;;;;;5027349;28;20048;-69
2024/02/10 03:14:02;;;;;;;16.13;7.18;;;10.10;99.90;;;;;;5024221;28;20171;-71
2024/02/10 03:16:33;;;;;;;24.20;8.20;;;10.10;99.90;;;;;;5019985;28;20121;-70
2024/02/10 03:19:01;;;;;;;15.02;7.05;;;10.20;99.90;;;;;;5039172;28;20655;-68
2024/02/10 03:21:27;;;;;;;15.05;6.68;;;10.20;99.90;;;;;;5042794;28;20030;-72
2024/02/10 03:23:54;;;;;;;12.32;6.57;;;10.30;99.90;;;;;;5026565;28;20033;-70
2024/02/10 03:26:19;;;;;;;14.18;6.93;;;10.30;99.90;;;;;;5025189;28;20532;-72
2024/02/10 03:28:45;;;;;;;23.88;7.40;;;10.30;99.90;;;;;;5020859;28;20025;-70
2024/02/10 03:31:11;;;;;;;20.63;7.93;;;10.30;99.90;;;;;;5023679;28;20030;-71
2024/02/10 03:33:36;;;;;;;15.32;7.00;;;10.40;99.90;;;;;;5027249;28;20017;-70
2024/02/10 03:36:03;;;;;;;18.08;6.13;;;10.40;99.90;;;;;;5001333;28;20038;-70
2024/02/10 03:38:29;;;;;;;14.10;6.90;;;10.40;99.90;;;;;;5024500;28;20034;-70
2024/02/10 03:40:54;;;;;;;11.80;6.85;;;10.50;99.90;;;;;;5024987;28;20032;-70
2024/02/10 03:43:27;;;;;;;16.25;6.57;;;10.50;99.90;;;;;;5023232;28;20457;-70
2024/02/10 03:45:56;;;;;;;16.45;6.90;;;10.50;99.90;;;;;;5022085;28;20034;-69
2024/02/10 03:48:22;;;;;;;14.85;6.38;;;10.50;99.90;;;;;;5022393;28;20028;-70
2024/02/10 03:50:48;;;;;;;14.07;5.97;;;10.60;99.90;;;;;;5026138;28;20033;-70
2024/02/10 03:53:14;;;;;;;12.65;6.53;;;10.60;99.90;;;;;;5025512;28;20029;-69
2024/02/10 03:55:39;;;;;;;15.30;6.38;;;10.60;99.90;;;;;;5027922;28;20041;-71
2024/02/10 03:58:06;;;;;;;18.02;6.05;;;10.60;99.90;;;;;;5022395;28;20040;-73
2024/02/10 04:00:36;;;;;;;10.65;5.90;;;10.60;99.90;;;;;;5008706;28;20018;-70
2024/02/10 04:03:03;;;;;;;12.40;5.70;;;10.60;99.90;;;;;;5028267;28;20028;-70
2024/02/10 04:05:34;;;;;;;8.75;5.10;;;10.60;99.90;;;;;;5028688;28;20022;-69
2024/02/10 04:08:00;;;;;;;14.82;5.70;;;10.60;99.90;;;;;;5027163;28;20041;-71
2024/02/10 04:10:28;;;;;;;11.52;4.97;;;10.70;99.90;;;;;;5024291;28;20132;-69
2024/02/10 04:12:54;;;;;;;12.88;5.63;;;10.60;99.90;;;;;;5019897;28;20041;-71
2024/02/10 04:15:22;;;;;;;12.60;5.32;;;10.70;99.90;;;;;;5024789;28;20037;-71
2024/02/10 04:17:52;;;;;;;9.93;5.20;;;10.60;99.90;;;;;;5026200;28;20491;-70
2024/02/10 04:20:22;;;;;;;7.72;4.80;;;10.70;99.90;;;;;;5021063;28;20477;-70
2024/02/10 04:22:51;;;;;;;10.23;5.72;;;10.60;99.90;;;;;;5006446;28;20075;-70
2024/02/10 04:25:17;;;;;;;15.68;5.47;;;10.70;99.90;;;;;;5026535;28;20040;-73
2024/02/10 04:27:42;;;;;;;9.60;4.90;;;10.70;99.90;;;;;;5035045;28;20025;-71
2024/02/10 04:30:10;;;;;;;12.00;5.55;;;10.70;99.90;;;;;;5029633;28;20113;-72
2024/02/10 04:32:42;;;;;;;11.43;4.63;;;10.70;99.90;;;;;;5024855;28;20077;-73
2024/02/10 04:35:09;;;;;;;9.93;4.53;;;10.70;99.90;;;;;;5026818;28;20113;-70
2024/02/10 04:37:35;;;;;;;8.73;4.93;;;10.70;99.90;;;;;;5021602;28;20041;-71
2024/02/10 04:40:02;;;;;;;10.57;5.15;;;10.70;99.90;;;;;;5025718;28;20025;-71
2024/02/10 04:42:28;;;;;;;10.68;5.35;;;10.70;99.90;;;;;;5031174;28;20029;-70
2024/02/10 04:44:58;;;;;;;11.23;4.63;;;10.70;99.90;;;;;;5026965;28;20397;-69
2024/02/10 04:47:24;;;;;;;6.93;4.47;;;10.70;99.90;;;;;;5023606;28;20049;-70
2024/02/10 04:49:49;;;;;;;10.30;4.68;;;10.60;99.90;;;;;;5028918;28;20120;-70
2024/02/10 04:52:18;;;;;;;10.75;4.80;;;10.70;99.90;;;;;;5025002;28;20054;-71
2024/02/10 04:54:44;;;;;;;11.15;5.13;;;10.60;99.90;;;;;;5019534;28;20072;-71
2024/02/10 04:57:09;;;;;;;8.73;4.82;;;10.60;99.90;;;;;;5029648;28;20037;-71
2024/02/10 04:59:35;;;;;;;9.75;4.80;;;10.70;99.90;;;;;;5026617;28;20029;-70
2024/02/10 05:02:02;;;;;;;7.60;4.53;;;10.60;99.90;;;;;;5027352;28;20037;-70
2024/02/10 05:04:27;;;;;;;10.48;4.90;;;10.60;99.90;;;;;;5029146;28;20052;-74
2024/02/10 05:06:53;;;;;;;9.60;4.45;;;10.60;99.90;;;;;;5024214;28;20058;-71
2024/02/10 05:09:18;;;;;;;10.35;5.18;;;10.70;99.90;;;;;;5019188;28;20051;-71
2024/02/10 05:11:44;;;;;;;10.73;5.65;;;10.60;99.90;;;;;;5025927;28;20022;-70
2024/02/10 05:14:10;;;;;;;8.02;5.05;;;10.60;99.90;;;;;;5043544;28;20029;-70
2024/02/10 05:16:37;;;;;;;11.13;5.72;;;10.60;99.90;;;;;;5023849;28;20099;-74
2024/02/10 05:19:03;;;;;;;10.18;5.85;;;10.60;99.90;;;;;;5027486;28;20108;-70
2024/02/10 05:21:28;;;;;;;9.05;5.47;;;10.60;99.90;;;;;;5028192;28;20108;-71
2024/02/10 05:23:55;;;;;;;10.98;5.28;;;10.60;99.90;;;;;;5030489;28;20064;-69
2024/02/10 05:26:21;;;;;;;12.98;5.85;;;10.60;99.90;;;;;;5027621;28;20105;-69
2024/02/10 05:28:47;;;;;;;8.85;5.78;;;10.60;99.90;;;;;;5026195;28;20108;-70
2024/02/10 05:31:13;;;;;;;12.45;6.00;;;10.60;99.90;;;;;;5026481;28;20469;-69
2024/02/10 05:33:42;;;;;;;10.18;5.13;;;10.60;99.90;;;;;;5025532;28;20535;-70
2024/02/10 05:36:10;;;;;;;14.90;5.97;;;10.60;99.90;;;;;;5035147;28;20025;-72
2024/02/10 05:38:39;;;;;;;11.00;5.07;;;10.60;99.90;;;;;;5024736;28;20406;-70
2024/02/10 05:41:05;;;;;;;11.93;5.38;;;10.60;99.90;;;;;;5006832;28;20511;-72
2024/02/10 05:43:34;;;;;;;10.80;6.20;;;10.60;99.90;;;;;;5019692;28;20550;-75
2024/02/10 05:46:06;;;;;;;10.88;5.88;;;10.60;99.90;;;;;;5012784;28;20029;-70
2024/02/10 05:48:32;;;;;;;8.95;5.63;;;10.60;99.90;;;;;;5022328;28;20030;-71
2024/02/10 05:51:01;;;;;;;9.73;4.90;;;10.60;99.90;;;;;;5023231;28;20071;-72
2024/02/10 05:53:27;;;;;;;10.48;4.78;;;10.50;99.90;;;;;;5030705;28;20025;-70
2024/02/10 05:55:53;;;;;;;17.50;6.45;;;10.50;99.90;;;;;;5009132;28;20048;-71
2024/02/10 05:58:23;;;;;;;10.57;5.55;;;10.50;99.90;;;;;;5013191;28;20541;-71
2024/02/10 06:00:51;;;;;;;12.45;5.43;;;10.50;99.90;;;;;;5022839;28;20029;-72
2024/02/10 06:03:19;;;;;;;11.63;5.65;;;10.50;99.90;;;;;;5029254;28;20041;-70
2024/02/10 06:05:44;;;;;;;9.85;5.03;;;10.50;99.90;;;;;;5032515;28;20025;-71
2024/02/10 06:08:13;;;;;;;8.32;5.30;;;10.50;99.90;;;;;;5031962;28;20380;-72
2024/02/10 06:10:39;;;;;;;11.20;5.07;;;10.50;99.90;;;;;;5032155;28;20107;-73
2024/02/10 06:13:06;;;;;;;7.95;4.80;;;10.50;99.90;;;;;;5021935;28;20120;-77
2024/02/10 06:15:32;;;;;;;12.50;5.97;;;10.50;99.90;;;;;;5009431;28;20036;-70
2024/02/10 06:18:02;;;;;;;9.50;4.82;;;10.50;99.90;;;;;;5026564;28;20030;-74
2024/02/10 06:20:28;;;;;;;9.63;4.85;;;10.50;99.90;;;;;;5024880;28;20017;-71
2024/02/10 06:22:55;;;;;;;9.25;4.90;;;10.50;99.90;;;;;;5039604;28;20036;-69
2024/02/10 06:25:27;;;;;;;14.73;4.95;;;10.50;99.90;;;;;;5027914;28;20025;-70
2024/02/10 06:27:58;;;;;;;7.82;4.88;;;10.50;99.90;;;;;;5026306;28;20052;-72
2024/02/10 06:30:28;;;;;;;8.88;5.30;;;10.50;99.90;;;;;;5028163;28;20032;-71
2024/02/10 06:32:55;;;;;;;10.43;6.05;;;10.50;99.90;;;;;;5024185;28;20048;-70
2024/02/10 06:35:21;;;;;;;10.50;5.22;;;10.50;99.90;;;;;;5033729;28;20073;-71
2024/02/10 06:37:50;;;;;;;7.97;4.68;;;10.50;99.90;;;;;;5029157;28;20021;-70
2024/02/10 06:40:16;;;;;;;7.57;4.57;;;10.40;99.90;;;;;;5031560;28;20057;-71
2024/02/10 06:42:48;;;;;;;6.40;4.38;;;10.50;99.90;;;;;;5025581;28;20037;-73
2024/02/10 06:45:14;;;;;;;8.52;4.55;;;10.40;99.90;;;;;;5014585;28;20025;-71
2024/02/10 06:47:44;;;;;;;6.60;4.57;;;10.40;99.90;;;;;;5023122;28;20129;-78
2024/02/10 06:50:13;;;;;;;7.40;4.32;;;10.40;99.90;;;;;;5005060;28;20099;-71
2024/02/10 06:52:40;;;;;;;7.57;5.10;;;10.30;99.90;;;;;;5024794;28;20037;-73
2024/02/10 06:55:12;;;;;;;9.10;4.45;;;10.30;99.90;;;;;;5021959;28;20056;-72
2024/02/10 06:57:42;;;;;;;9.68;4.68;;;10.30;99.90;;;;;;5027102;28;20466;-75
2024/02/10 07:00:15;;;;;;;7.22;4.47;;;10.30;99.90;;;;;;5015994;28;20025;-75
2024/02/10 07:02:42;;;;;;;7.95;4.68;;;10.30;99.90;;;;;;5024576;28;20107;-70
2024/02/10 07:05:09;;;;;;;11.30;4.45;;;10.30;99.90;;;;;;5030351;28;20064;-71
2024/02/10 07:07:39;;;;;;;7.35;4.60;;;10.30;99.90;;;;;;5038946;28;20493;-72
2024/02/10 07:10:12;;;;;;;9.98;5.25;;;10.30;99.90;;;;;;5024019;28;20034;-75
2024/02/10 07:12:39;;;;;;;11.07;5.38;;;10.30;99.90;;;;;;5023813;28;20110;-71
2024/02/10 07:15:05;;;;;;;9.15;5.32;;;10.30;99.90;;;;;;5047086;28;20172;-74
2024/02/10 07:17:31;;;;;;;7.78;4.60;;;10.30;99.90;;;;;;5030150;28;20521;-71
2024/02/10 07:19:57;;;;;;;9.75;4.88;;;10.30;99.90;;;;;;5029127;28;20116;-73
2024/02/10 07:22:25;;;;;;;10.23;5.55;;;10.30;99.90;;;;;;5031699;28;20491;-72
2024/02/10 07:24:51;;;;;;;14.00;5.78;;;10.30;99.90;;;;;;5029018;28;20096;-73
2024/02/10 07:27:17;;;;;;;10.30;5.35;;;10.30;99.90;;;;;;5028896;28;20117;-73
2024/02/10 07:29:45;;;;;;;9.82;5.70;;;10.20;99.90;;;;;;5030340;28;20116;-69
2024/02/10 07:32:12;;;;;;;14.75;5.78;;;10.20;99.90;;;;;;5025267;28;20044;-71
2024/02/10 07:34:38;;;;;;;13.60;5.60;;;10.30;99.90;;;;;;5028661;28;20079;-71
2024/02/10 07:37:04;;;;;;;12.63;6.45;;;10.30;99.90;;;;;;5024610;28;20619;-73
2024/02/10 07:39:30;;;;;;;13.52;5.75;;;10.30;99.90;;;;;;5045606;28;20041;-74
2024/02/10 07:41:59;;;;;;;12.68;6.18;;;10.30;99.90;;;;;;5025590;28;20434;-74
2024/02/10 07:44:27;;;;;;;13.20;7.30;;;10.30;99.90;;;;;;5007135;28;20028;-76
2024/02/10 07:46:55;;;;;;;9.63;5.05;;;10.30;99.90;;;;;;5005036;28;20525;-73
2024/02/10 07:49:24;;;;;;;;;;;10.30;99.90;;;;;;5031961;28;20049;-70
2024/02/10 07:51:50;;;;;;;11.13;6.35;;;10.30;99.90;;;;;;5027146;28;19917;-78
2024/02/10 07:54:20;;;;;;;10.57;6.18;;;10.30;99.90;;;;;;5014395;28;20032;-77
2024/02/10 07:56:46;;;;;;;14.60;7.05;;;10.30;99.90;;;;;;5013913;28;20037;-71
2024/02/10 07:59:12;;;;;;;11.75;6.65;;;10.30;99.90;;;;;;5021148;28;20033;-72
2024/02/10 08:01:38;;;;;;;10.23;7.32;;;10.30;99.90;;;;;;5027069;28;20500;-74
2024/02/10 08:04:09;;;;;;;14.70;6.85;;;10.30;99.90;;;;;;5023461;28;20026;-73
2024/02/10 08:06:36;;;;;;;18.38;7.20;;;10.40;99.90;;;;;;5028916;28;20690;-70
2024/02/10 08:09:02;;;;;;;15.02;6.95;;;10.40;99.90;;;;;;5020878;28;20029;-76
2024/02/10 08:11:28;;;;;;;14.38;6.72;;;10.40;99.90;;;;;;5028190;28;20026;-74
2024/02/10 08:13:55;;;;;;;11.30;6.25;;;10.40;99.90;;;;;;5005520;28;20022;-73
2024/02/10 08:16:25;;;;;;;12.68;7.10;;;10.40;99.90;;;;;;5020366;28;20044;-76
2024/02/10 08:18:51;;;;;;;15.55;7.57;;;10.50;99.90;;;;;;5028936;28;20636;-71
2024/02/10 08:21:22;;;;;;;13.70;7.03;;;10.50;99.90;;;;;;5013259;28;20028;-71
2024/02/10 08:23:57;;;;;;;11.65;6.93;;;10.50;99.90;;;;;;5032587;28;20459;-78
2024/02/10 08:26:24;;;;;;;13.60;7.65;;;10.50;99.90;;;;;;5028694;28;20025;-73
2024/02/10 08:28:51;;;;;;;17.48;8.65;;;10.50;99.90;;;;;;5028973;28;20056;-73
2024/02/10 08:31:20;;;;;;;18.10;8.25;;;10.60;99.90;;;;;;5012211;28;20026;-71
2024/02/10 08:33:47;;;;;;;15.32;8.00;;;10.60;99.90;;;;;;5010973;28;20035;-71
2024/02/10 08:36:15;;;;;;;11.20;7.22;;;10.60;99.90;;;;;;5029889;28;20048;-70
2024/02/10 08:38:41;;;;;;;12.65;7.53;;;10.60;99.90;;;;;;5011274;28;20297;-71
2024/02/10 08:41:06;;;;;;;15.57;8.10;;;10.70;99.90;;;;;;5025676;28;20490;-72
2024/02/10 08:43:32;;;;;;;13.93;8.20;;;10.70;99.90;;;;;;5012355;28;20075;-72
2024/02/10 08:46:00;;;;;;;16.73;8.43;;;10.80;99.90;;;;;;5008792;28;20033;-69
2024/02/10 08:48:26;;;;;;;13.63;6.80;;;10.80;99.90;;;;;;5027964;28;20029;-70
2024/02/10 08:50:53;;;;;;;13.10;6.63;;;10.80;99.90;;;;;;5035358;28;20417;-74
2024/02/10 08:53:20;;;;;;;11.82;5.60;;;10.80;99.90;;;;;;5009966;28;20822;-72
2024/02/10 08:55:45;;;;;;;10.43;5.40;;;10.90;99.90;;;;;;5021968;28;20041;-70
2024/02/10 08:58:11;;;;;;;10.02;5.80;;;10.90;99.90;;;;;;5019992;28;20038;-70
2024/02/10 09:00:37;;;;;;;7.78;5.38;;;10.90;99.90;;;;;;5029890;28;20021;-70
2024/02/10 09:03:04;;;;;;;8.85;5.30;;;11.00;99.90;;;;;;5026570;28;20033;-69
2024/02/10 09:05:30;;;;;;;8.25;5.35;;;11.00;99.90;;;;;;5040152;28;20021;-73
2024/02/10 09:07:56;;;;;;;8.93;5.25;;;11.00;99.90;;;;;;5030269;28;20055;-70
2024/02/10 09:10:22;;;;;;;6.60;4.20;;;11.10;99.90;;;;;;5028540;28;20087;-71
2024/02/10 09:12:47;;;;;;;9.27;4.90;;;11.10;99.90;;;;;;5028617;28;20033;-72
2024/02/10 09:15:14;;;;;;;6.07;4.25;;;11.20;99.90;;;;;;5010509;28;20033;-69
2024/02/10 09:17:40;;;;;;;7.38;4.63;;;11.20;99.90;;;;;;5022800;28;20636;-72
2024/02/10 09:20:12;;;;;;;6.22;4.38;;;11.20;99.90;;;;;;5018392;28;20034;-73
2024/02/10 09:22:38;;;;;;;8.00;4.43;;;11.20;99.90;;;;;;5038054;28;20033;-73
2024/02/10 09:25:04;;;;;;;7.90;4.80;;;11.30;99.90;;;;;;5024077;28;20483;-68
2024/02/10 09:27:30;;;;;;;6.25;3.92;;;11.30;99.90;;;;;;5034522;28;20599;-73
2024/02/10 09:29:56;;;;;;;6.25;4.60;;;11.40;99.90;;;;;;5027991;28;20045;-69
2024/02/10 09:32:22;;;;;;;8.30;4.72;;;11.40;99.90;;;;;;5028950;28;20035;-69
2024/02/10 09:34:49;;;;;;;5.90;4.05;;;11.50;99.90;;;;;;5027962;28;20025;-70
2024/02/10 09:37:14;;;;;;;6.25;4.10;;;11.60;99.90;;;;;;5038315;28;20551;-71
2024/02/10 09:39:41;;;;;;;7.65;4.60;;;11.70;99.90;;;;;;5020895;28;20022;-71
2024/02/10 09:42:12;;;;;;;7.10;4.43;;;11.80;99.90;;;;;;5021065;28;20025;-71
2024/02/10 09:44:39;;;;;;;6.47;4.43;;;11.90;99.90;;;;;;5008108;28;20066;-72
2024/02/10 09:47:07;;;;;;;5.55;4.00;;;11.90;99.90;;;;;;5020687;28;20041;-73
2024/02/10 09:49:33;;;;;;;;;;;12.00;99.90;;;;;;5023978;28;20048;-71
2024/02/10 09:51:59;;;;;;;8.27;5.20;;;12.10;99.90;;;;;;5026882;28;19917;-79
2024/02/10 09:54:25;;;;;;;7.35;4.60;;;12.10;99.90;;;;;;5024388;28;20060;-69
2024/02/10 09:56:51;;;;;;;8.20;4.50;;;12.20;99.90;;;;;;5020496;28;20042;-72
2024/02/10 09:59:22;;;;;;;10.80;5.25;;;12.40;99.90;;;;;;5025606;28;20054;-68
2024/02/10 10:01:49;;;;;;;10.00;5.22;;;12.50;99.90;;;;;;5009314;28;20421;-69
2024/02/10 10:04:16;;;;;;;5.88;4.50;;;12.60;99.90;;;;;;5030892;28;20086;-71
2024/02/10 10:06:44;;;;;;;5.80;3.83;;;12.70;99.90;;;;;;5025419;28;20269;-71
2024/02/10 10:09:12;;;;;;;6.65;3.80;;;12.80;99.90;;;;;;5032318;28;20516;-69
2024/02/10 10:11:43;;;;;;;4.03;2.83;;;12.90;99.90;;;;;;5023195;28;20485;-71
2024/02/10 10:14:09;;;;;;;3.95;2.65;;;13.00;99.90;;;;;;5027017;28;20643;-71
2024/02/10 10:16:35;;;;;;;2.88;2.20;;;13.00;99.90;;;;;;5025601;28;20128;-69
2024/02/10 10:19:01;;;;;;;4.75;2.75;;;13.10;99.90;;;;;;5021004;28;20029;-69
2024/02/10 10:21:30;;;;;;;2.80;1.80;;;13.20;99.90;;;;;;5026748;28;20033;-69
2024/02/10 10:24:00;;;;;;;3.53;1.50;;;13.40;99.90;;;;;;5018081;28;20091;-72
2024/02/10 10:26:26;;;;;;;2.03;1.80;;;13.60;99.90;;;;;;5018566;28;20090;-78
2024/02/10 10:28:52;;;;;;;9.27;2.00;;;13.80;99.90;;;;;;5019484;28;20037;-68
2024/02/10 10:31:17;;;;;;;4.45;1.98;;;14.00;99.90;;;;;;5022490;28;20049;-71
2024/02/10 10:33:46;;;;;;;4.00;2.13;;;14.10;99.90;;;;;;5024866;28;20045;-71
2024/02/10 10:36:18;;;;;;;3.58;2.25;;;14.20;99.90;;;;;;5024561;28;20029;-70
2024/02/10 10:38:45;;;;;;;1.98;1.88;;;14.40;99.90;;;;;;5028058;28;20514;-70
2024/02/10 10:41:18;;;;;;;2.92;2.50;;;14.60;99.90;;;;;;5025587;28;20025;-73
2024/02/10 10:43:45;;;;;;;3.70;2.88;;;14.70;99.90;;;;;;5018309;28;20026;-71
2024/02/10 10:46:17;;;;;;;3.47;2.53;;;14.70;99.90;;;;;;5020226;28;20025;-70
2024/02/10 10:48:48;;;;;;;6.03;2.72;;;14.90;99.90;;;;;;5005895;28;20421;-77
2024/02/10 10:51:13;;;;;;;2.97;2.45;;;14.90;99.90;;;;;;5027381;28;20448;-71
2024/02/10 10:53:45;;;;;;;2.53;2.33;;;14.90;99.90;;;;;;5025073;28;20033;-68
2024/02/10 10:56:14;;;;;;;3.33;2.22;;;14.90;99.90;;;;;;5031674;28;20047;-70
2024/02/10 10:58:51;;;;;;;1.92;1.80;;;14.90;99.90;;;;;;5028043;28;20357;-68
2024/02/10 11:01:20;;;;;;;4.10;2.38;;;14.80;99.90;;;;;;5024159;28;20440;-72
2024/02/10 11:03:47;;;;;;;3.75;2.20;;;14.80;99.90;;;;;;5029396;28;20482;-69
2024/02/10 11:06:14;;;;;;;2.03;1.23;;;15.10;99.90;;;;;;5028825;28;20026;-69
2024/02/10 11:08:40;;;;;;;2.17;1.30;;;15.30;99.90;;;;;;5029284;28;20378;-73
2024/02/10 11:11:10;;;;;;;1.33;1.20;;;15.50;99.90;;;;;;5025774;28;20041;-72
2024/02/10 11:13:38;;;;;;;4.72;1.45;;;15.50;99.90;;;;;;5030267;28;20128;-70
2024/02/10 11:16:13;;;;;;;;;;;15.60;99.90;;;;;;5029180;28;20109;-70
2024/02/10 11:18:56;;;;;;;1.48;1.30;;;15.80;99.90;;;;;;5024980;28;20505;-69
2024/02/10 11:21:30;;;;;;;1.48;1.00;;;16.10;99.90;;;;;;5029776;28;20515;-71
2024/02/10 11:24:02;;;;;;;2.35;1.00;;;16.20;99.90;;;;;;5026272;28;20040;-72
2024/02/10 11:26:28;;;;;;;1.05;0.90;;;16.30;99.90;;;;;;5040613;28;20152;-69
2024/02/10 11:29:01;;;;;;;1.00;0.90;;;16.60;99.90;;;;;;5026377;28;20483;-69
2024/02/10 11:31:28;;;;;;;2.20;1.05;;;16.70;99.90;;;;;;5028940;28;20569;-71
2024/02/10 11:34:00;;;;;;;1.47;1.00;;;16.70;99.90;;;;;;5037267;28;20391;-71
2024/02/10 11:36:28;;;;;;;2.85;1.27;;;16.60;99.90;;;;;;5030289;28;20030;-69
2024/02/10 11:38:54;;;;;;;2.67;0.90;;;16.50;99.90;;;;;;5023335;28;20035;-70
2024/02/10 11:41:20;;;;;;;1.73;0.90;;;16.50;99.90;;;;;;5024658;28;20034;-70
2024/02/10 11:43:48;;;;;;;1.50;0.70;;;16.40;99.90;;;;;;5023743;28;20516;-71
2024/02/10 11:46:15;;;;;;;1.15;0.80;;;16.40;99.90;;;;;;5045068;28;20434;-70
2024/02/10 11:48:41;;;;;;;2.42;0.85;;;16.50;99.90;;;;;;5027966;28;20037;-70
2024/02/10 11:51:06;;;;;;;0.90;0.70;;;16.70;99.90;;;;;;5024242;28;20092;-72
2024/02/10 11:53:32;;;;;;;0.98;0.60;;;17.10;99.90;;;;;;5025060;28;20020;-77
2024/02/10 11:55:58;;;;;;;1.80;0.65;;;17.40;99.90;;;;;;5021729;28;20047;-77
2024/02/10 11:58:26;;;;;;;4.55;0.80;;;17.70;99.90;;;;;;5022729;28;20051;-72
2024/02/10 12:00:52;;;;;;;1.83;0.70;;;17.80;99.90;;;;;;5028870;28;20481;-76
2024/02/10 12:03:19;;;;;;;1.98;0.70;;;18.00;99.90;;;;;;5028320;28;20049;-72
2024/02/10 12:05:46;;;;;;;0.95;0.70;;;18.20;99.90;;;;;;5009527;28;20537;-70
2024/02/10 12:08:12;;;;;;;1.98;0.70;;;18.30;99.90;;;;;;5021622;28;20026;-73
2024/02/10 12:10:42;;;;;;;1.38;0.70;;;18.10;99.90;;;;;;5028995;28;20039;-73
2024/02/10 12:13:11;;;;;;;1.15;0.73;;;18.10;99.90;;;;;;5021351;28;20030;-74
2024/02/10 12:15:40;;;;;;;0.90;0.50;;;18.10;99.90;;;;;;5020894;28;20048;-74
2024/02/10 12:18:07;;;;;;;1.48;0.57;;;18.10;99.90;;;;;;5023506;28;20492;-75
2024/02/10 12:20:37;;;;;;;1.45;0.70;;;18.20;99.90;;;;;;5035220;28;20385;-71
2024/02/10 12:23:03;;;;;;;1.85;0.57;;;18.10;99.90;;;;;;5036661;28;20044;-74
2024/02/10 12:25:29;;;;;;;1.90;0.70;;;18.10;99.90;;;;;;5033952;28;20025;-77
2024/02/10 12:27:57;;;;;;;1.70;0.80;;;18.00;99.90;;;;;;5034595;28;20040;-71
2024/02/10 12:30:22;;;;;;;1.40;1.02;;;17.90;99.90;;;;;;5030615;28;20029;-72
2024/02/10 12:32:51;;;;;;;4.07;1.00;;;17.90;99.90;;;;;;5036538;28;20108;-69
2024/02/10 12:35:17;;;;;;;2.85;0.88;;;17.70;99.90;;;;;;5015951;28;20474;-78
2024/02/10 12:37:46;;;;;;;0.93;0.55;;;17.60;99.90;;;;;;5028918;28;20401;-75
2024/02/10 12:40:13;;;;;;;0.63;0.50;;;17.60;99.90;;;;;;5033046;28;20026;-70
2024/02/10 12:42:42;;;;;;;0.63;0.63;;;17.50;99.90;;;;;;5023350;28;20034;-74
2024/02/10 12:45:10;;;;;;;1.75;0.35;;;17.60;99.90;;;;;;5029910;28;20026;-72